Date,TemperatureHighF,TemperatureAvgF,TemperatureLowF,DewpointHighF,DewpointAvgF,DewpointLowF,HumidityHigh,HumidityAvg,HumidityLow,PressureMaxIn,PressureMinIn,WindSpeedMaxMPH,WindSpeedAvgMPH,GustSpeedMaxMPH,PrecipitationSumIn
2013-1-1,52,43,37,41,36,33,87,77,60,30.24,30.15,5,1,12,0.00
2013-1-2,55,44,36,41,35,29,81,72,53,30.19,30.08,3,0,10,0.00
2013-1-3,54,43,34,45,36,28,81,75,66,30.22,30.12,3,0,9,0.00
2013-1-4,55,45,37,44,37,31,82,73,56,30.24,30.15,5,1,8,0.00
2013-1-5,53,48,42,49,44,37,91,86,79,30.25,30.07,7,0,13,0.52
2013-1-6,51,47,39,48,43,36,93,88,82,30.17,30.03,1,0,9,0.14
2013-1-7,52,44,37,48,40,33,95,88,81,30.24,30.12,5,0,9,0.01
2013-1-8,56,46,39,50,43,36,96,87,77,30.20,30.09,4,0,8,0.01
2013-1-9,54,47,42,49,43,37,90,84,75,30.11,29.99,4,0,12,0.02
2013-1-10,49,42,37,40,36,32,91,78,59,30.19,30.05,9,1,26,0.03
2013-1-11,51,41,32,41,34,28,90,77,60,30.24,30.12,7,0,15,0.01
2013-1-12,48,41,36,39,34,29,83,75,63,30.22,30.12,6,1,12,0.00
2013-1-13,48,38,31,37,28,24,78,68,48,30.23,30.13,6,1,10,0.00
2013-1-14,48,39,31,34,25,17,73,58,37,30.39,30.18,6,1,13,0.00
2013-1-15,50,39,32,36,28,24,74,64,41,30.45,30.37,3,0,9,0.00
2013-1-16,54,45,34,38,33,27,76,64,47,30.39,30.20,6,1,8,0.00
2013-1-17,62,48,38,42,36,30,74,63,41,30.21,30.10,5,1,10,0.00
2013-1-18,63,50,42,41,36,32,69,59,36,30.18,30.10,3,1,10,0.00
2013-1-19,64,50,42,41,36,32,70,58,35,30.18,30.11,3,0,9,0.00
2013-1-20,67,51,40,41,35,29,65,54,32,30.17,30.06,3,1,10,0.00
2013-1-21,66,51,41,39,34,29,65,54,27,30.13,30.03,5,1,9,0.00
2013-1-22,64,51,41,42,34,28,63,53,31,30.08,29.99,3,0,9,0.00
2013-1-23,58,53,49,48,42,35,82,66,56,30.05,29.94,3,0,9,0.04
2013-1-24,56,54,52,52,49,46,87,85,82,30.16,30.02,0,0,5,0.19
2013-1-25,65,57,52,58,52,48,94,84,76,30.16,30.01,6,1,12,0.00
2013-1-26,58,52,42,50,44,36,89,75,55,30.09,29.98,8,1,22,0.01
2013-1-27,56,46,37,43,37,32,90,73,51,30.16,30.07,7,1,14,0.01
2013-1-28,57,47,37,42,38,32,85,72,52,30.29,30.15,6,0,14,0.00
2013-1-29,56,46,39,45,39,34,87,76,64,30.35,30.25,6,0,12,0.01
2013-1-30,58,47,39,45,40,35,91,76,60,30.34,30.24,5,0,9,0.01
2013-1-31,61,49,40,47,41,34,85,74,55,30.26,30.15,5,1,8,0.01
2013-2-1,61,50,43,51,43,37,86,77,62,30.23,30.11,9,1,15,0.00
2013-2-2,57,50,44,50,44,39,87,81,73,30.27,30.20,5,0,9,0.00
2013-2-3,55,48,41,48,42,37,90,81,71,30.24,30.13,7,1,10,0.01
2013-2-4,57,47,39,50,42,35,90,82,70,30.15,30.04,6,1,10,0.01
2013-2-5,55,48,42,47,42,38,87,80,71,30.14,30.05,6,1,12,0.01
2013-2-6,55,46,38,46,40,33,89,79,67,30.17,30.10,6,1,12,0.01
2013-2-7,55,46,39,47,39,34,87,76,53,30.17,30.00,7,1,14,0.03
2013-2-8,52,45,38,41,38,32,88,77,60,30.00,29.92,6,1,14,0.02
2013-2-9,53,42,32,44,35,27,89,77,61,30.09,29.99,6,1,10,0.01
2013-2-10,55,44,34,46,36,28,82,76,68,30.09,29.99,7,1,12,0.00
2013-2-11,54,44,34,44,37,30,89,76,65,30.23,30.06,6,1,10,0.01
2013-2-12,55,46,39,44,38,32,85,74,58,30.34,30.23,7,1,12,0.00
2013-2-13,57,46,37,46,38,32,89,75,57,30.32,30.20,6,1,10,0.00
2013-2-14,64,49,39,49,40,33,86,72,55,30.21,30.11,6,0,10,0.01
2013-2-15,68,55,44,45,40,36,76,60,34,30.22,30.16,7,1,10,0.00
2013-2-16,68,56,48,47,42,37,79,60,37,30.19,30.03,3,1,9,0.00
2013-2-17,57,50,43,47,42,38,87,77,67,30.05,29.96,6,1,12,0.00
2013-2-18,53,47,42,44,40,37,84,75,63,30.04,29.97,6,0,12,0.00
2013-2-19,49,44,35,46,38,30,89,81,74,29.98,29.77,16,1,26,0.34
2013-2-20,56,43,33,45,36,28,93,76,50,30.06,29.81,7,1,15,0.01
2013-2-21,58,46,36,39,34,31,90,66,40,30.18,30.04,8,1,17,0.00
2013-2-22,59,47,37,48,39,30,82,73,63,30.25,30.17,7,1,12,0.00
2013-2-23,59,49,40,41,38,32,84,67,45,30.24,30.13,8,1,20,0.00
2013-2-24,59,49,39,37,31,24,75,50,31,30.25,30.11,9,2,14,0.00
2013-2-25,58,48,37,45,37,28,75,66,51,30.26,30.14,6,1,9,0.00
2013-2-26,62,49,38,46,38,32,87,67,35,30.19,30.09,7,1,10,0.01
2013-2-27,64,49,38,46,38,30,78,65,37,30.36,30.18,7,1,10,0.00
2013-2-28,63,51,42,52,44,36,85,75,64,30.43,30.35,6,1,12,0.00
2013-3-1,70,56,46,54,47,41,88,74,54,30.42,30.20,7,1,12,0.01
2013-3-2,67,57,51,51,47,44,80,71,50,30.22,30.08,7,1,12,0.00
2013-3-3,61,54,50,51,47,43,83,78,66,30.10,30.04,8,1,12,0.00
2013-3-4,57,52,46,47,44,40,79,73,64,30.14,30.05,10,2,14,0.00
2013-3-5,55,50,45,45,42,39,84,74,63,30.07,29.92,15,4,21,0.18
2013-3-6,56,51,43,48,45,38,89,81,70,30.07,29.92,17,3,27,0.24
2013-3-7,56,48,41,47,41,36,86,79,60,29.99,29.84,7,1,13,0.25
2013-3-8,58,50,43,47,42,38,90,76,58,30.08,29.80,8,1,15,0.03
2013-3-9,63,53,46,48,42,38,81,68,41,30.30,30.08,8,1,16,0.00
2013-3-10,60,50,40,48,42,34,87,75,56,30.34,30.25,7,1,10,0.01
2013-3-11,65,51,40,47,41,35,86,71,40,30.26,30.11,9,1,14,0.00
2013-3-12,70,54,44,52,45,39,88,73,47,30.15,30.06,7,1,12,0.01
2013-3-13,73,56,45,55,47,40,89,74,42,30.14,30.07,9,1,15,0.01
2013-3-14,63,56,46,53,49,41,87,76,65,30.15,30.09,5,1,9,0.00
2013-3-15,67,54,43,51,45,38,82,71,49,30.11,30.03,6,1,10,0.01
2013-3-16,62,54,47,52,47,42,86,78,64,30.09,30.02,8,1,13,0.00
2013-3-17,65,54,42,50,45,37,91,72,46,30.12,30.03,8,1,12,0.01
2013-3-18,62,51,42,50,44,36,88,76,62,30.12,30.03,8,1,12,0.01
2013-3-19,65,55,46,51,45,39,84,71,45,30.14,30.04,8,1,15,0.10
2013-3-20,63,57,53,54,50,48,89,80,64,30.13,30.07,8,1,13,0.02
2013-3-21,65,55,46,49,43,38,80,65,40,30.11,29.99,8,2,18,0.00
2013-3-22,66,52,39,48,36,28,89,60,24,30.07,30.00,8,1,18,0.01
2013-3-23,66,52,39,48,39,31,77,62,37,30.10,30.02,8,1,13,0.00
2013-3-24,65,52,41,48,42,34,83,69,46,30.08,29.97,6,1,13,0.00
2013-3-25,63,52,43,48,43,38,86,73,51,30.02,29.94,6,1,13,0.01
2013-3-26,65,54,44,51,44,38,82,71,57,30.00,29.92,8,2,13,0.00
2013-3-27,65,56,48,53,48,42,84,75,63,30.03,29.94,8,2,14,0.00
2013-3-28,64,58,52,57,53,46,88,82,70,30.08,30.01,8,2,13,0.07
2013-3-29,65,55,46,55,48,42,93,79,67,30.08,30.04,8,1,14,0.01
2013-3-30,63,57,53,54,51,48,89,81,65,30.09,30.01,10,1,14,0.46
2013-3-31,63,58,53,56,52,50,92,82,71,30.08,30.02,13,4,22,0.08
2013-4-1,62,57,50,56,51,45,90,81,64,30.16,30.04,9,2,15,0.44
2013-4-2,68,56,46,56,49,42,90,77,57,30.19,30.08,7,2,12,0.00
2013-4-3,67,56,49,56,49,45,87,78,63,30.13,30.01,9,1,13,0.01
2013-4-4,61,56,52,57,51,47,93,86,82,30.13,30.04,7,0,12,0.28
2013-4-5,67,59,53,58,52,47,89,79,66,30.19,30.12,10,2,18,0.00
2013-4-6,65,57,48,56,50,44,89,79,68,30.20,30.12,9,2,16,0.00
2013-4-7,66,56,48,55,49,44,89,78,63,30.18,29.89,9,2,16,0.07
2013-4-8,65,55,47,50,41,35,87,61,36,30.00,29.81,12,3,23,0.09
2013-4-9,71,58,42,45,39,35,83,54,27,30.06,29.98,9,1,20,0.00
2013-4-10,76,63,47,54,47,41,84,58,37,30.15,30.04,8,1,20,0.00
2013-4-11,67,58,50,52,48,43,80,68,55,30.09,29.87,7,1,14,0.00
2013-4-12,67,55,44,52,45,39,85,71,50,29.94,29.85,6,1,12,0.01
2013-4-13,66,55,45,51,44,38,87,67,43,29.92,29.84,8,1,20,0.00
2013-4-14,68,54,42,46,41,35,83,64,37,29.93,29.85,12,1,22,0.00
2013-4-15,61,54,46,46,39,33,80,59,41,29.96,29.87,14,2,32,0.00
2013-4-16,46,46,46,35,35,35,67,66,65,29.95,29.94,1,0,6,0.00
2013-4-17,69,60,42,36,33,30,66,38,24,30.23,30.14,7,2,22,0.00
2013-4-18,70,56,43,49,40,32,75,57,30,30.25,30.18,12,2,16,0.00
2013-4-19,71,56,44,49,44,37,79,65,40,30.23,30.08,7,1,12,0.00
2013-4-20,76,59,45,54,46,40,89,66,38,30.10,29.97,9,1,14,0.00
2013-4-21,77,60,46,53,47,40,84,65,39,30.02,29.94,6,1,12,0.01
2013-4-22,70,57,48,52,47,42,80,70,53,29.97,29.89,9,2,14,0.00
2013-4-23,62,56,50,50,48,45,83,75,65,29.98,29.87,10,2,17,0.00
2013-4-24,62,55,51,50,47,45,81,75,63,29.97,29.84,7,1,16,0.00
2013-4-25,68,58,47,53,48,42,88,70,50,30.13,29.97,10,2,17,0.00
2013-4-26,70,56,46,54,48,42,88,73,55,30.22,30.12,7,1,12,0.01
2013-4-27,70,58,49,53,48,44,84,71,50,30.22,30.09,7,1,12,0.00
2013-4-28,70,58,50,54,49,46,84,74,55,30.09,29.90,6,1,9,0.00
2013-4-29,76,60,48,56,50,44,93,71,50,29.90,29.79,5,1,10,0.00
2013-4-30,71,59,48,54,49,43,89,71,52,29.85,29.79,6,1,12,0.01
2013-5-1,66,57,48,52,48,42,86,73,57,30.09,29.85,9,2,14,0.00
2013-5-2,78,63,51,55,49,42,82,64,39,30.13,30.07,8,2,13,0.00
2013-5-3,85,65,52,52,46,39,78,54,20,30.09,29.82,9,1,15,0.00
2013-5-4,65,57,48,53,48,42,87,73,63,29.82,29.67,10,2,22,0.00
2013-5-5,70,60,53,51,49,46,77,67,50,29.80,29.64,17,6,31,0.00
2013-5-6,66,61,55,54,51,48,79,70,61,29.96,29.80,12,2,20,0.00
2013-5-7,71,62,55,54,51,47,80,67,50,30.07,29.95,10,2,18,0.00
2013-5-8,71,60,52,53,49,46,82,68,43,30.15,30.05,10,2,17,0.00
2013-5-9,71,60,54,53,49,46,78,68,53,30.18,30.09,7,2,13,0.00
2013-5-10,74,61,51,55,50,45,79,69,51,30.19,30.12,9,1,13,0.00
2013-5-11,78,62,50,57,51,45,86,70,46,30.16,30.07,8,1,14,0.00
2013-5-12,77,62,50,58,52,45,87,70,51,30.13,30.04,6,1,10,0.00
2013-5-13,76,62,51,56,52,46,86,69,46,30.09,29.98,6,1,12,0.01
2013-5-14,71,61,54,53,50,44,79,67,53,30.06,29.96,7,2,14,0.00
2013-5-15,75,59,46,53,46,40,86,63,37,30.08,30.03,9,1,18,0.00
2013-5-16,74,60,52,57,51,45,84,71,54,30.06,29.97,8,2,17,0.01
2013-5-17,76,61,47,52,46,42,87,61,36,30.10,29.99,7,1,17,0.00
2013-5-18,74,60,45,51,47,39,83,62,41,30.14,30.09,6,1,13,0.00
2013-5-19,82,62,48,55,49,42,85,64,34,30.13,29.98,8,1,14,0.01
2013-5-20,83,64,47,56,49,41,84,62,33,30.00,29.93,7,1,12,0.00
2013-5-21,76,61,52,54,45,38,80,59,26,30.01,29.93,8,1,20,0.00
2013-5-22,73,58,43,41,36,30,71,48,24,30.00,29.93,10,2,22,0.00
2013-5-23,71,58,46,47,41,37,73,55,37,30.03,29.94,8,1,16,0.00
2013-5-24,76,58,44,48,42,36,77,57,30,30.03,29.96,7,1,13,0.00
2013-5-25,74,58,44,50,44,37,82,60,35,30.09,30.00,9,1,16,0.00
2013-5-26,76,61,51,55,48,44,78,64,41,30.16,30.07,9,1,20,0.00
2013-5-27,70,60,50,55,50,44,85,70,56,30.15,30.02,6,1,10,0.00
2013-5-28,81,66,57,59,53,46,82,65,41,30.03,29.91,7,1,14,0.00
2013-5-29,80,64,53,57,50,42,79,61,36,29.99,29.89,8,2,21,0.00
2013-5-30,77,61,49,51,46,40,78,60,37,30.01,29.94,6,1,10,0.00
2013-5-31,80,62,47,59,48,40,82,62,40,30.01,29.92,7,1,12,0.00
2013-6-1,79,62,50,55,50,44,86,65,39,29.95,29.80,6,1,12,0.00
2013-6-2,71,61,50,54,50,45,84,68,52,29.81,29.75,6,2,12,0.00
2013-6-3,68,60,54,52,49,46,79,69,53,29.89,29.76,8,2,16,0.00
2013-6-4,69,58,50,54,49,44,83,72,57,29.98,29.86,9,2,15,0.00
2013-6-5,69,59,50,54,49,44,85,72,55,30.00,29.96,10,3,17,0.00
2013-6-6,70,60,55,54,50,48,79,70,55,29.97,29.91,9,2,16,0.00
2013-6-7,73,60,54,56,51,49,83,73,54,29.93,29.78,8,1,12,0.00
2013-6-8,66,59,53,55,52,48,84,77,66,29.87,29.77,8,1,14,0.01
2013-6-9,65,60,57,57,54,51,88,80,71,29.91,29.84,7,1,12,0.02
2013-6-10,71,63,58,54,52,49,75,67,54,29.97,29.87,10,1,18,0.00
2013-6-11,77,64,55,57,52,49,80,68,49,29.98,29.91,7,2,12,0.00
2013-6-12,77,62,50,56,49,40,85,64,37,30.03,29.92,6,1,16,0.01
2013-6-13,80,62,46,53,47,38,84,60,35,30.09,30.00,7,2,13,0.00
2013-6-14,86,65,48,55,49,42,82,59,27,30.01,29.83,9,2,15,0.00
2013-6-15,72,60,55,53,50,47,80,68,51,30.03,29.85,12,2,18,0.00
2013-6-16,77,65,55,55,51,48,76,62,41,30.10,30.02,7,1,16,0.00
2013-6-17,84,66,50,57,51,44,85,61,33,30.10,30.03,6,1,18,0.00
2013-6-18,78,65,54,52,48,45,78,55,31,30.05,30.00,10,2,21,0.00
2013-6-19,81,66,54,52,46,42,72,51,30,30.05,29.99,8,2,18,0.00
2013-6-20,81,65,49,52,45,41,75,51,26,30.02,29.94,5,1,17,0.00
2013-6-21,80,64,49,54,48,41,78,58,38,30.00,29.93,7,1,12,0.00
2013-6-22,79,63,50,55,50,43,80,64,39,29.96,29.88,7,1,12,0.00
2013-6-23,69,62,57,59,54,50,81,74,67,29.92,29.83,9,1,14,0.00
2013-6-24,62,61,60,58,56,55,87,85,81,29.93,29.80,5,0,9,0.04
2013-6-25,66,62,59,63,58,55,90,87,84,30.01,29.92,3,0,7,0.04
2013-6-26,86,70,60,67,61,56,91,74,48,30.05,29.97,9,2,15,0.01
2013-6-27,86,70,59,64,58,54,89,67,43,30.05,30.01,7,1,12,0.00
2013-6-28,85,69,57,60,56,52,85,65,40,30.03,29.92,8,1,13,0.00
2013-6-29,83,68,56,60,55,50,85,65,42,29.94,29.84,6,1,12,0.01
2013-6-30,82,67,54,60,55,49,87,67,45,29.87,29.79,6,1,10,0.00
2013-7-1,79,67,56,60,55,50,85,68,50,29.90,29.80,8,1,12,0.00
2013-7-2,82,68,59,60,56,52,81,66,46,29.97,29.85,10,1,17,0.00
2013-7-3,76,66,60,59,56,54,82,70,55,29.95,29.81,7,1,13,0.00
2013-7-4,74,66,60,59,56,54,82,71,58,29.82,29.76,9,2,14,0.00
2013-7-5,77,66,59,56,54,50,81,66,48,29.83,29.78,7,2,13,0.00
2013-7-6,70,62,58,54,51,49,79,69,56,29.84,29.80,10,2,15,0.00
2013-7-7,72,62,57,59,52,49,77,70,55,29.89,29.81,9,2,15,0.00
2013-7-8,73,62,57,55,52,50,78,70,53,29.99,29.89,8,2,14,0.00
2013-7-9,80,65,55,59,54,49,83,69,43,30.01,29.97,9,2,13,0.00
2013-7-10,73,63,57,56,53,51,82,71,55,30.01,29.94,9,2,14,0.00
2013-7-11,74,63,57,54,52,49,80,69,51,29.97,29.93,8,2,13,0.00
2013-7-12,75,63,56,56,52,49,78,68,49,29.96,29.92,7,2,12,0.00
2013-7-13,75,62,55,57,52,49,80,71,52,30.00,29.92,8,1,14,0.00
2013-7-14,76,62,56,62,53,50,83,72,51,30.01,29.93,7,1,14,0.00
2013-7-15,70,61,56,55,52,50,80,71,58,29.95,29.87,12,2,20,0.00
2013-7-16,72,63,57,56,53,50,84,71,56,30.03,29.89,12,2,20,0.00
2013-7-17,78,64,53,58,53,47,83,68,49,30.08,30.02,8,1,12,0.00
2013-7-18,74,63,56,57,53,49,83,71,52,30.07,29.97,8,1,13,0.00
2013-7-19,74,62,57,56,53,51,82,71,53,29.98,29.87,7,1,12,0.00
2013-7-20,68,60,56,55,52,50,83,74,59,29.89,29.82,8,1,13,0.00
2013-7-21,74,64,56,57,53,50,80,69,55,29.92,29.80,7,2,12,0.00
2013-7-22,72,65,58,59,55,51,82,72,62,29.98,29.89,7,1,14,0.00
2013-7-23,75,65,60,59,56,53,85,72,56,30.01,29.96,8,2,13,0.00
2013-7-24,76,64,58,58,55,53,83,72,54,30.00,29.94,7,1,12,0.00
2013-7-25,73,64,57,57,54,51,84,71,55,30.05,29.95,7,2,13,0.00
2013-7-26,71,63,58,57,54,52,83,73,60,30.11,30.03,9,2,14,0.00
2013-7-27,70,62,57,56,53,52,84,75,61,30.05,29.92,9,2,16,0.00
2013-7-28,68,61,57,55,53,51,84,75,63,29.91,29.86,8,2,14,0.00
2013-7-29,69,62,58,55,52,50,77,71,59,30.04,29.88,9,1,15,0.00
2013-7-30,70,63,58,54,52,50,75,68,56,30.11,30.03,10,2,18,0.00
2013-7-31,74,63,56,56,52,49,78,69,53,30.11,30.04,9,1,14,0.00
2013-8-1,78,63,49,57,51,44,90,68,47,30.08,29.98,6,1,13,0.01
2013-8-2,74,60,50,56,50,44,84,70,51,30.00,29.93,8,1,13,0.00
2013-8-3,67,60,56,54,52,50,80,73,62,30.00,29.95,10,1,15,0.00
2013-8-4,70,60,56,59,52,50,84,75,59,30.02,29.98,9,2,14,0.01
2013-8-5,73,62,56,56,52,50,82,72,55,30.03,29.96,9,2,14,0.00
2013-8-6,69,63,57,55,53,51,82,70,60,30.07,29.99,12,3,18,0.00
2013-8-7,71,64,58,55,54,52,84,71,56,30.11,30.04,10,2,16,0.00
2013-8-8,70,63,59,57,54,51,83,73,61,30.05,29.95,10,2,20,0.00
2013-8-9,73,63,58,57,53,50,77,69,56,29.98,29.93,10,2,20,0.00
2013-8-10,76,70,62,59,56,54,75,63,54,30.04,30.00,7,3,15,0.00
2013-8-11,74,64,59,58,54,52,79,71,56,30.03,29.96,7,1,12,0.00
2013-8-12,74,63,58,58,54,51,81,73,57,30.01,29.95,7,2,12,0.00
2013-8-13,75,63,55,57,53,49,86,71,52,29.99,29.93,8,1,13,0.00
2013-8-14,77,63,52,58,53,47,84,71,50,29.99,29.91,5,1,9,0.00
2013-8-15,84,68,55,63,57,50,91,70,46,29.97,29.91,8,1,12,0.01
2013-8-16,82,67,57,63,57,52,87,72,50,29.99,29.93,7,1,12,0.00
2013-8-17,73,64,58,58,55,52,84,74,58,30.00,29.90,7,1,16,0.00
2013-8-18,73,64,59,59,56,53,84,74,59,29.91,29.82,7,1,12,0.00
2013-8-19,71,64,58,58,55,52,83,74,61,29.94,29.84,9,2,16,0.00
2013-8-20,68,62,58,56,54,52,84,75,64,29.93,29.86,10,2,16,0.00
2013-8-21,71,63,58,55,53,51,79,71,56,29.94,29.88,9,2,17,0.00
2013-8-22,74,64,56,56,54,50,81,69,53,29.97,29.88,10,2,17,0.00
2013-8-23,75,63,54,58,53,48,82,71,53,29.94,29.83,7,1,12,0.00
2013-8-24,76,65,56,60,55,50,83,71,55,29.91,29.84,6,1,10,0.00
2013-8-25,77,67,59,61,57,53,86,72,58,29.96,29.89,10,2,17,0.01
2013-8-26,80,68,61,60,57,52,79,68,49,30.00,29.90,7,1,13,0.00
2013-8-27,78,65,53,58,53,46,82,68,47,29.92,29.82,6,1,10,0.00
2013-8-28,81,66,54,62,56,49,88,70,48,29.95,29.85,10,1,16,0.00
2013-8-29,80,68,61,63,58,54,82,71,53,30.04,29.95,6,1,12,0.00
2013-8-30,83,68,57,63,57,51,89,70,47,30.02,29.92,7,1,12,0.01
2013-8-31,79,66,57,59,55,51,85,70,45,29.97,29.89,8,1,12,0.00
2013-9-1,83,69,60,63,57,54,85,67,41,29.93,29.87,8,1,13,0.00
2013-9-2,82,71,64,63,58,56,78,66,45,29.95,29.86,8,1,16,0.00
2013-9-3,81,69,58,60,55,52,82,62,39,29.99,29.92,7,1,14,0.01
2013-9-4,81,68,56,58,54,50,83,62,40,30.03,29.93,7,1,15,0.00
2013-9-5,80,67,57,58,53,50,83,63,41,30.01,29.94,6,1,18,0.00
2013-9-6,86,68,54,57,52,47,78,59,32,30.00,29.81,7,1,14,0.00
2013-9-7,74,65,57,58,54,47,77,66,50,29.89,29.83,7,1,12,0.00
2013-9-8,70,63,60,58,55,54,79,75,65,29.88,29.80,5,0,8,0.00
2013-9-9,71,63,58,58,55,53,84,76,63,29.81,29.75,7,1,12,0.00
2013-9-10,65,62,59,58,56,54,87,80,73,29.91,29.77,7,1,12,0.01
2013-9-11,70,64,57,58,55,52,81,74,64,30.00,29.91,10,2,17,0.00
2013-9-12,74,64,56,60,56,51,84,75,58,29.97,29.89,8,1,14,0.00
2013-9-13,73,64,58,59,55,53,84,75,59,29.92,29.78,6,1,10,0.00
2013-9-14,73,62,53,58,54,48,88,74,55,29.82,29.73,6,1,9,0.00
2013-9-15,75,63,52,59,53,46,87,72,56,29.85,29.78,6,1,12,0.01
2013-9-16,77,65,54,60,54,49,89,70,48,29.88,29.78,6,1,13,0.01
2013-9-17,75,64,54,57,51,48,84,66,42,29.89,29.86,9,1,18,0.00
2013-9-18,77,62,51,56,50,45,83,66,41,29.88,29.80,8,1,12,0.00
2013-9-19,83,64,50,54,47,42,75,58,24,29.85,29.73,7,1,13,0.00
2013-9-20,72,61,49,59,52,42,83,73,62,29.88,29.76,10,1,20,0.00
2013-9-21,64,61,54,60,57,49,88,85,80,29.90,29.82,9,2,16,0.25
2013-9-22,69,59,49,58,52,45,94,78,56,29.99,29.90,6,1,16,0.01
2013-9-23,77,64,52,60,53,47,87,68,49,29.99,29.90,7,1,13,0.00
2013-9-24,75,64,56,57,52,48,86,66,42,29.98,29.91,9,1,20,0.01
2013-9-25,69,60,52,49,45,42,78,58,37,29.93,29.83,10,2,21,0.00
2013-9-26,71,58,46,50,43,37,81,60,32,29.98,29.82,7,1,12,0.00
2013-9-27,72,60,47,50,41,36,67,52,32,30.07,29.96,10,2,16,0.00
2013-9-28,76,62,50,50,41,36,66,48,25,30.07,29.98,8,1,14,0.00
2013-9-29,76,63,53,58,51,45,77,66,48,30.09,30.02,8,1,13,0.00
2013-9-30,76,65,55,61,55,49,85,72,55,30.08,29.95,7,1,12,0.00
2013-10-1,70,62,55,55,49,42,79,63,46,30.01,29.92,7,1,12,0.00
2013-10-2,70,58,49,54,47,42,84,69,41,30.01,29.91,5,0,12,0.01
2013-10-3,52,47,45,43,40,38,79,74,70,30.01,29.98,0,0,3,0.00
2013-10-4,73,63,58,39,36,33,40,37,27,30.07,30.01,0,0,3,0.00
2013-10-5,80,66,54,38,33,30,44,32,17,30.15,30.07,7,1,14,0.00
2013-10-6,79,64,53,38,34,30,43,33,20,30.10,29.99,6,1,12,0.00
2013-10-7,72,60,50,51,40,32,75,51,32,29.99,29.89,7,1,12,0.00
2013-10-8,64,56,48,51,46,40,79,72,60,29.91,29.73,8,1,12,0.00
2013-10-9,63,56,50,48,45,42,78,68,53,29.76,29.62,10,1,16,0.01
2013-10-10,60,53,47,49,45,39,79,74,65,30.01,29.76,5,0,10,0.00
2013-10-11,63,56,51,52,47,44,78,72,59,30.07,29.97,9,1,13,0.00
2013-10-12,61,53,47,50,46,40,83,76,66,30.00,29.92,8,1,13,0.00
2013-10-13,62,53,46,51,46,40,83,77,66,30.05,29.93,6,0,9,0.01
2013-10-14,73,58,46,53,43,38,81,61,33,30.06,29.96,8,1,13,0.00
2013-10-15,75,60,48,45,38,34,62,46,26,30.00,29.91,8,1,12,0.00
2013-10-16,75,62,51,43,36,32,51,39,24,30.05,29.97,6,1,10,0.00
2013-10-17,76,60,51,51,40,31,71,49,34,30.05,29.95,7,1,12,0.00
2013-10-18,75,60,46,49,41,32,77,52,28,30.02,29.96,6,1,12,0.00
2013-10-19,71,55,44,51,44,37,80,68,47,30.04,29.98,6,1,12,0.00
2013-10-20,64,55,46,49,46,39,83,72,52,30.03,29.92,6,1,10,0.00
2013-10-21,64,54,49,51,47,43,83,75,54,29.99,29.91,6,1,13,0.00
2013-10-22,62,54,48,50,46,42,84,77,63,30.00,29.94,6,0,10,0.00
2013-10-23,58,53,48,50,47,43,84,79,73,29.97,29.91,5,0,9,0.00
2013-10-24,59,53,48,49,47,43,83,78,69,30.09,29.96,6,0,9,0.00
2013-10-25,63,52,45,52,46,40,87,78,62,30.14,30.06,5,0,9,0.01
2013-10-26,65,52,44,52,46,38,88,78,60,30.11,30.01,6,0,10,0.01
2013-10-27,60,54,50,51,48,45,86,79,63,30.03,29.74,7,1,24,0.00
2013-10-28,62,56,52,50,47,43,83,72,51,29.85,29.68,10,1,20,0.02
2013-10-29,59,54,47,53,48,42,91,82,68,30.03,29.85,7,1,13,0.05
2013-10-30,62,52,44,50,44,39,88,76,58,30.12,30.03,8,1,12,0.01
2013-10-31,66,54,46,52,45,40,81,70,52,30.14,30.04,7,1,13,0.01
2013-11-1,69,56,47,48,43,39,75,63,39,30.09,30.00,3,0,8,0.00
2013-11-2,64,53,44,50,42,34,76,66,49,30.00,29.91,5,0,9,0.00
2013-11-3,64,54,42,46,36,28,88,56,27,29.99,29.88,6,1,15,0.01
2013-11-4,64,52,42,35,32,29,68,48,27,30.02,29.88,7,1,18,0.00
2013-11-5,62,51,41,47,37,32,80,60,43,30.19,30.02,5,0,8,0.00
2013-11-6,70,56,44,43,35,33,65,47,26,30.21,30.13,3,0,8,0.00
2013-11-7,65,55,48,48,39,33,70,55,41,30.14,30.05,5,0,8,0.00
2013-11-8,67,53,44,51,43,36,78,69,53,30.06,29.92,5,0,8,0.00
2013-11-9,62,54,46,50,45,40,81,73,53,30.05,29.94,8,1,13,0.00
2013-11-10,60,56,50,49,47,44,80,73,66,30.11,30.02,7,2,12,0.00
2013-11-11,64,55,48,50,46,42,83,72,54,30.15,30.05,3,0,6,0.01
2013-11-12,70,59,51,53,48,42,80,67,43,30.23,30.12,5,0,8,0.00
2013-11-13,68,55,46,52,46,40,81,70,49,30.23,30.08,3,0,8,0.00
2013-11-14,58,53,48,51,47,42,87,81,75,30.08,29.89,5,0,9,0.00
2013-11-15,60,50,42,50,43,38,91,76,61,29.89,29.71,8,0,12,0.01
2013-11-16,59,51,40,47,43,35,86,74,60,29.92,29.78,7,1,12,0.01
2013-11-17,59,51,46,48,44,40,83,76,64,30.08,29.92,8,1,12,0.00
2013-11-18,58,51,46,48,44,40,83,76,66,30.13,30.07,8,1,14,0.00
2013-11-19,60,54,47,52,47,41,88,79,69,30.10,29.95,3,0,6,0.06
2013-11-20,59,56,50,56,52,46,90,88,85,29.96,29.83,3,0,8,0.55
2013-11-21,56,51,47,50,43,32,90,76,51,29.92,29.86,6,0,12,0.01
2013-11-22,57,50,43,37,32,26,66,51,37,29.98,29.89,7,1,12,0.00
2013-11-23,59,49,42,49,39,32,81,68,55,30.09,29.94,8,1,12,0.00
2013-11-24,60,50,42,46,40,35,80,71,55,30.23,30.08,7,0,10,0.00
2013-11-25,62,51,43,45,40,36,78,67,48,30.28,30.21,5,0,7,0.00
2013-11-26,64,53,45,48,41,36,71,64,45,30.22,30.00,3,0,7,0.00
2013-11-27,61,53,46,45,42,38,77,66,51,29.99,29.82,6,0,10,0.00
2013-11-28,62,53,48,45,41,39,74,65,47,30.06,29.82,7,1,12,0.00
2013-11-29,66,53,45,50,43,37,81,70,51,30.20,30.05,6,0,12,0.00
2013-11-30,64,51,41,50,42,34,82,73,55,30.24,30.15,5,0,8,0.00
2013-12-1,65,52,43,48,41,37,81,68,44,30.29,30.18,5,0,8,0.01
2013-12-2,60,52,43,49,43,37,80,73,58,30.21,29.97,6,0,9,0.00
2013-12-3,55,50,38,46,39,30,84,67,46,29.97,29.82,9,1,18,0.01
2013-12-4,50,39,32,32,27,24,73,63,43,30.04,29.91,9,0,14,0.00
2013-12-5,49,38,30,31,25,20,67,59,45,30.15,30.04,6,0,14,0.00
2013-12-6,51,42,31,47,32,22,85,69,54,30.18,29.93,14,2,25,0.14
2013-12-7,51,43,33,47,34,26,87,72,46,30.22,29.88,15,2,22,0.14
2013-12-8,46,37,31,31,26,20,80,66,47,30.27,30.15,6,0,14,0.00
2013-12-9,51,37,27,28,22,18,70,55,33,30.35,30.26,7,1,12,0.00
2013-12-10,54,42,33,30,24,21,63,51,32,30.34,30.14,5,0,10,0.00
2013-12-11,57,44,35,32,27,24,65,52,33,30.17,30.11,3,0,8,0.00
2013-12-12,55,44,36,37,29,25,65,56,38,30.22,30.14,3,0,9,0.00
2013-12-13,53,43,35,41,33,27,76,68,59,30.30,30.20,2,0,7,0.00
2013-12-14,60,50,36,40,36,28,77,60,44,30.34,30.26,3,0,7,0.00
2013-12-15,64,50,40,44,35,30,65,55,42,30.30,30.17,3,0,7,0.00
2013-12-16,68,54,45,40,33,29,55,47,27,30.17,30.06,3,0,7,0.00
2013-12-17,67,55,47,39,35,30,59,46,31,30.10,29.99,3,0,8,0.00
2013-12-18,56,52,46,46,42,37,77,69,59,30.00,29.78,6,0,12,0.00
2013-12-19,56,48,41,40,35,30,82,62,40,29.89,29.70,6,1,21,0.00
2013-12-20,57,45,34,38,27,17,64,51,21,29.98,29.88,6,1,12,0.00
2013-12-21,56,49,39,43,37,28,76,64,54,30.05,29.94,3,0,8,0.00
2013-12-22,56,47,39,48,40,34,85,77,57,30.27,30.05,6,0,9,0.00
2013-12-23,61,49,40,47,39,35,83,71,52,30.34,30.26,6,0,10,0.01
2013-12-24,62,51,41,44,37,33,73,60,41,30.28,30.15,5,0,9,0.00
2013-12-25,67,52,42,40,35,31,65,53,34,30.21,30.14,3,0,7,0.00
2013-12-26,70,55,45,44,35,31,66,49,28,30.19,30.10,3,0,8,0.00
2013-12-27,65,51,43,37,32,28,58,48,34,30.16,30.07,2,0,8,0.00
2013-12-28,58,48,39,44,34,27,65,59,40,30.08,29.97,6,0,9,0.00
2013-12-29,63,48,36,33,29,26,66,49,27,30.14,30.04,3,0,7,0.00
2013-12-30,60,49,40,36,29,26,58,48,33,30.22,30.14,5,0,7,0.00
2013-12-31,59,50,37,42,34,23,68,56,41,30.23,30.10,3,0,7,0.00
2014-1-1,63,51,38,45,35,27,67,55,44,30.16,30.07,3,0,6,0.00
2014-1-2,65,51,42,45,35,29,63,56,42,30.11,30.01,5,0,8,0.00